createdAt,value
2019-05-15T00:00:02.626Z,68.66
2019-05-15T00:01:02.639Z,68.66
2019-05-15T00:02:02.596Z,69.18
2019-05-15T00:03:02.587Z,68.87
2019-05-15T00:04:02.615Z,69.73
2019-05-15T00:05:02.570Z,69.63
2019-05-15T00:06:02.569Z,69.84
2019-05-15T00:07:02.547Z,70.67
2019-05-15T00:08:02.536Z,69.63
2019-05-15T00:09:02.528Z,70.70
2019-05-15T00:10:02.517Z,70.39
2019-05-15T00:11:02.513Z,70.18
2019-05-15T00:12:02.495Z,70.25
2019-05-15T00:13:02.488Z,70.49
2019-05-15T00:14:02.477Z,70.04
2019-05-15T00:15:02.459Z,69.73
2019-05-15T00:16:02.454Z,69.73
2019-05-15T00:17:02.434Z,69.63
2019-05-15T00:18:02.425Z,68.90
2019-05-15T00:19:02.414Z,68.80
2019-05-15T00:20:02.414Z,69.42
2019-05-15T00:21:02.405Z,69.63
2019-05-15T00:22:02.383Z,69.32
2019-05-15T00:23:02.371Z,68.90
2019-05-15T00:24:02.373Z,69.21
2019-05-15T00:25:02.353Z,69.21
2019-05-15T00:26:02.351Z,69.53
2019-05-15T00:27:02.330Z,69.42
2019-05-15T00:28:02.317Z,69.42
2019-05-15T00:29:12.834Z,70.67
2019-05-15T00:30:03.294Z,69.73
2019-05-15T00:31:02.304Z,69.84
2019-05-15T00:32:02.272Z,70.46
2019-05-15T00:33:02.261Z,70.90
2019-05-15T00:34:02.260Z,71.32
2019-05-15T00:35:02.240Z,71.63
2019-05-15T00:36:02.241Z,71.66
2019-05-15T00:37:02.221Z,71.56
2019-05-15T00:38:02.211Z,71.87
2019-05-15T00:39:02.191Z,72.39
2019-05-15T00:40:02.188Z,72.91
2019-05-15T00:41:02.187Z,72.63
2019-05-15T00:42:02.162Z,72.11
2019-05-15T00:43:02.157Z,72.18
2019-05-15T00:44:02.139Z,72.84
2019-05-15T00:45:02.132Z,73.57
2019-05-15T00:46:02.129Z,74.19
2019-05-15T00:47:02.112Z,73.05
2019-05-15T00:48:02.099Z,73.36
2019-05-15T00:49:02.091Z,74.29
2019-05-15T00:50:02.091Z,74.40
2019-05-15T00:51:02.242Z,74.84
2019-05-15T00:52:02.063Z,74.63
2019-05-15T00:53:02.038Z,75.15
2019-05-15T00:54:02.040Z,75.05
2019-05-15T00:55:02.028Z,75.36
2019-05-15T00:56:02.008Z,74.95
2019-05-15T00:57:02.006Z,74.43
2019-05-15T00:58:01.988Z,75.26
2019-05-15T00:59:01.989Z,75.78
2019-05-15T01:00:01.975Z,75.81
2019-05-15T01:01:01.947Z,75.50
2019-05-15T01:02:01.959Z,75.60
2019-05-15T01:03:01.926Z,74.46
2019-05-15T01:04:01.919Z,73.70
2019-05-15T01:05:01.928Z,73.70
2019-05-15T01:06:01.904Z,73.91
2019-05-15T01:07:01.906Z,74.11
2019-05-15T01:08:01.877Z,74.63
2019-05-15T01:09:01.866Z,75.26
2019-05-15T01:10:01.857Z,74.11
2019-05-15T01:11:01.845Z,74.11
2019-05-15T01:12:01.845Z,74.74
2019-05-15T01:13:01.823Z,74.43
2019-05-15T01:14:01.827Z,74.95
2019-05-15T01:15:01.803Z,76.23
2019-05-15T01:16:01.793Z,75.92
2019-05-15T01:17:01.793Z,75.92
2019-05-15T01:18:01.776Z,76.33
2019-05-15T01:19:01.754Z,76.47
2019-05-15T01:20:01.765Z,76.26
2019-05-15T01:21:01.733Z,76.89
2019-05-15T01:22:01.743Z,77.20
2019-05-15T01:23:01.713Z,77.30
2019-05-15T01:24:01.703Z,77.51
2019-05-15T01:25:01.691Z,76.78
2019-05-15T01:26:01.671Z,76.57
2019-05-15T01:27:01.682Z,77.30
2019-05-15T01:28:01.665Z,76.68
2019-05-15T01:29:01.646Z,76.26
2019-05-15T01:30:01.641Z,76.26
2019-05-15T01:31:01.621Z,75.95
2019-05-15T01:32:01.634Z,75.74
2019-05-15T01:33:01.612Z,75.43
2019-05-15T01:34:01.593Z,75.09
2019-05-15T01:35:01.580Z,74.67
2019-05-15T01:36:01.570Z,74.46
2019-05-15T01:37:01.581Z,74.15
2019-05-15T01:38:01.549Z,74.05
2019-05-15T01:39:01.545Z,74.26
2019-05-15T01:40:01.527Z,74.77
2019-05-15T01:41:01.527Z,74.98
2019-05-15T01:42:01.528Z,74.88
2019-05-15T01:43:01.501Z,74.88
2019-05-15T01:44:01.488Z,75.40
2019-05-15T01:45:01.469Z,74.67
2019-05-15T01:46:01.468Z,74.77
2019-05-15T01:47:01.448Z,75.29
2019-05-15T01:48:01.448Z,75.40
2019-05-15T01:49:01.431Z,75.95
2019-05-15T01:50:01.417Z,76.57
2019-05-15T01:51:01.406Z,77.40
2019-05-15T01:52:01.396Z,76.26
2019-05-15T01:53:01.397Z,77.40
2019-05-15T01:54:01.376Z,76.92
2019-05-15T01:55:01.366Z,77.34
2019-05-15T01:56:01.355Z,76.61
2019-05-15T01:57:01.346Z,77.13
2019-05-15T01:58:01.346Z,77.34
2019-05-15T01:59:01.328Z,76.57
2019-05-15T02:00:01.319Z,76.68
2019-05-15T02:01:01.295Z,77.75
2019-05-15T02:02:01.295Z,77.96
2019-05-15T02:03:01.284Z,78.27
2019-05-15T02:04:01.266Z,78.72
2019-05-15T02:05:01.265Z,79.03
2019-05-15T02:06:01.243Z,78.52
2019-05-15T02:07:01.232Z,78.10
2019-05-15T02:08:01.241Z,79.03
2019-05-15T02:09:01.213Z,78.52
2019-05-15T02:10:01.205Z,78.31
2019-05-15T02:11:01.191Z,78.41
2019-05-15T02:12:01.180Z,79.66
2019-05-15T02:13:01.182Z,79.45
2019-05-15T02:14:01.162Z,79.59
2019-05-15T02:15:01.162Z,79.28
2019-05-15T02:16:01.141Z,78.66
2019-05-15T02:17:01.124Z,79.59
2019-05-15T02:18:01.129Z,80.22
2019-05-15T02:19:01.105Z,80.63
2019-05-15T02:20:01.094Z,80.11
2019-05-15T02:21:01.083Z,79.69
2019-05-15T02:22:01.074Z,79.49
2019-05-15T02:23:01.068Z,79.38
2019-05-15T02:24:01.052Z,79.28
2019-05-15T02:25:01.043Z,80.74
2019-05-15T02:26:01.029Z,80.15
2019-05-15T02:27:01.018Z,80.15
2019-05-15T02:28:01.016Z,79.83
2019-05-15T02:29:00.989Z,80.88
2019-05-15T02:30:16.787Z,81.09
2019-05-15T02:31:01.970Z,81.29
2019-05-15T02:32:00.962Z,80.36
2019-05-15T02:33:00.971Z,80.26
2019-05-15T02:34:00.946Z,80.67
2019-05-15T02:35:00.938Z,79.83
2019-05-15T02:36:00.917Z,79.83
2019-05-15T02:37:00.909Z,80.36
2019-05-15T02:38:00.908Z,80.05
2019-05-15T02:39:00.878Z,80.26
2019-05-15T02:40:00.878Z,79.63
2019-05-15T02:41:00.866Z,80.57
2019-05-15T02:42:00.857Z,80.67
2019-05-15T02:43:00.857Z,80.46
2019-05-15T02:44:00.837Z,80.98
2019-05-15T02:45:00.816Z,81.29
2019-05-15T02:46:00.926Z,81.40
2019-05-15T02:47:00.796Z,80.36
2019-05-15T02:48:00.800Z,80.26
2019-05-15T02:49:00.797Z,80.29
2019-05-15T02:50:00.766Z,79.83
2019-05-15T02:51:00.756Z,78.80
2019-05-15T02:52:00.757Z,79.73
2019-05-15T02:53:00.902Z,80.15
2019-05-15T02:54:00.732Z,80.67
2019-05-15T02:55:00.709Z,81.09
2019-05-15T02:56:00.699Z,81.12
2019-05-15T02:57:00.685Z,81.33
2019-05-15T02:58:00.674Z,81.33
2019-05-15T02:59:00.682Z,81.54
2019-05-15T03:00:00.656Z,81.54
2019-05-15T03:01:00.645Z,82.06
2019-05-15T03:02:00.644Z,82.27
2019-05-15T03:03:00.626Z,82.41
2019-05-15T03:04:00.623Z,82.41
2019-05-15T03:05:00.609Z,81.79
2019-05-15T03:06:00.594Z,81.54
2019-05-15T03:07:00.635Z,81.37
2019-05-15T03:08:00.567Z,81.99
2019-05-15T03:09:00.564Z,82.20
2019-05-15T03:10:00.554Z,82.82
2019-05-15T03:11:09.788Z,83.45
2019-05-15T03:12:00.518Z,83.66
2019-05-15T03:13:00.507Z,83.25
2019-05-15T03:14:00.508Z,82.72
2019-05-15T03:15:00.487Z,81.79
2019-05-15T03:16:00.490Z,82.31
2019-05-15T03:17:00.466Z,82.31
2019-05-15T03:18:00.582Z,82.20
2019-05-15T03:19:00.467Z,81.58
2019-05-15T03:20:00.482Z,80.12
2019-05-15T03:21:00.599Z,80.81
2019-05-15T03:22:00.436Z,81.12
2019-05-15T03:23:00.397Z,81.23
2019-05-15T03:24:00.404Z,80.60
2019-05-15T03:25:00.378Z,80.50
2019-05-15T03:26:04.018Z,81.26
2019-05-15T03:27:00.367Z,81.05
2019-05-15T03:28:00.347Z,80.29
2019-05-15T03:29:00.365Z,80.71
2019-05-15T03:30:00.349Z,81.58
2019-05-15T03:31:17.833Z,81.16
2019-05-15T03:32:17.875Z,81.89
2019-05-15T03:33:09.162Z,81.58
2019-05-15T03:34:03.422Z,81.68
2019-05-15T03:35:04.777Z,81.79
2019-05-15T03:36:03.453Z,82.20
2019-05-15T03:37:03.202Z,82.31
2019-05-15T03:38:00.241Z,82.10
2019-05-15T03:39:00.242Z,82.20
2019-05-15T03:40:00.257Z,81.79
2019-05-15T03:41:00.204Z,81.37
2019-05-15T03:42:00.192Z,81.26
2019-05-15T03:43:00.191Z,81.16
2019-05-15T03:44:00.181Z,81.37
2019-05-15T03:45:00.163Z,82.31
2019-05-15T03:46:01.555Z,82.10
2019-05-15T03:47:00.140Z,81.58
2019-05-15T03:48:00.130Z,81.99
2019-05-15T03:49:00.627Z,80.85
2019-05-15T03:50:00.280Z,81.26
2019-05-15T03:51:00.097Z,81.89
2019-05-15T03:52:00.101Z,81.79
2019-05-15T03:53:00.077Z,81.79
2019-05-15T03:54:00.453Z,81.79
2019-05-15T03:55:00.067Z,81.89
2019-05-15T03:56:00.048Z,82.31
2019-05-15T03:57:00.037Z,81.37
2019-05-15T03:58:00.019Z,81.68
2019-05-15T03:59:00.043Z,81.58
2019-05-15T04:00:00.023Z,81.58
2019-05-15T04:01:00.458Z,81.99
2019-05-15T04:02:00.164Z,82.62
2019-05-15T04:02:59.973Z,83.04
2019-05-15T04:04:00.043Z,82.41
2019-05-15T04:05:01.602Z,82.65
2019-05-15T04:06:00.672Z,82.97
2019-05-15T04:07:00.017Z,82.34
2019-05-15T04:08:00.146Z,82.45
2019-05-15T04:08:59.907Z,82.34
2019-05-15T04:09:59.894Z,81.41
2019-05-15T04:10:59.881Z,82.14
2019-05-15T04:12:00.171Z,82.24
2019-05-15T04:13:00.193Z,81.82
2019-05-15T04:13:59.843Z,81.51
2019-05-15T04:14:59.877Z,81.26
2019-05-15T04:15:59.825Z,81.05
2019-05-15T04:16:59.835Z,81.58
2019-05-15T04:18:00.524Z,81.47
2019-05-15T04:18:59.788Z,82.10
2019-05-15T04:19:59.790Z,81.79
2019-05-15T04:21:00.323Z,82.41
2019-05-15T04:22:00.227Z,82.87
2019-05-15T04:23:00.541Z,82.87
2019-05-15T04:23:59.753Z,82.65
2019-05-15T04:24:59.742Z,83.18
2019-05-15T04:25:59.712Z,83.07
2019-05-15T04:27:00.047Z,83.39
2019-05-15T04:27:59.719Z,82.97
2019-05-15T04:29:00.238Z,83.70
2019-05-15T04:29:59.681Z,83.39
2019-05-15T04:30:59.839Z,82.97
2019-05-15T04:32:05.331Z,82.97
2019-05-15T04:33:00.631Z,83.18
2019-05-15T04:33:59.643Z,83.39
2019-05-15T04:34:59.705Z,82.87
2019-05-15T04:35:59.602Z,83.39
2019-05-15T04:36:59.614Z,83.70
2019-05-15T04:37:59.910Z,82.24
2019-05-15T04:38:59.570Z,81.79
2019-05-15T04:39:59.856Z,82.10
2019-05-15T04:40:59.551Z,82.82
2019-05-15T04:41:59.540Z,81.58
2019-05-15T04:42:59.532Z,82.20
2019-05-15T04:43:59.825Z,82.41
2019-05-15T04:44:59.768Z,82.41
2019-05-15T04:46:02.988Z,82.31
2019-05-15T04:46:59.787Z,81.79
2019-05-15T04:47:59.467Z,81.79
2019-05-15T04:48:59.767Z,81.68
2019-05-15T04:49:59.461Z,81.68
2019-05-15T04:50:59.439Z,81.26
2019-05-15T04:52:03.353Z,81.89
2019-05-15T04:52:59.479Z,82.82
2019-05-15T04:53:59.400Z,82.41
2019-05-15T04:54:59.938Z,81.37
2019-05-15T04:55:59.926Z,81.79
2019-05-15T04:56:59.570Z,81.68
2019-05-15T04:57:59.458Z,81.68
2019-05-15T04:59:00.208Z,81.99
2019-05-15T04:59:59.368Z,82.20
2019-05-15T05:01:00.190Z,82.51
2019-05-15T05:02:16.240Z,82.72
2019-05-15T05:03:00.304Z,82.31
2019-05-15T05:03:59.316Z,81.58
2019-05-15T05:04:59.277Z,81.58
2019-05-15T05:05:59.461Z,82.31
2019-05-15T05:06:59.258Z,82.10
2019-05-15T05:07:59.702Z,83.35
2019-05-15T05:08:59.623Z,83.35
2019-05-15T05:09:59.598Z,83.04
2019-05-15T05:10:59.489Z,81.68
2019-05-15T05:11:59.203Z,82.41
2019-05-15T05:12:59.221Z,81.58
2019-05-15T05:13:59.297Z,81.99
2019-05-15T05:14:59.165Z,82.20
2019-05-15T05:15:59.194Z,81.68
2019-05-15T05:16:59.383Z,81.89
2019-05-15T05:17:59.130Z,82.31
2019-05-15T05:18:59.485Z,81.65
2019-05-15T05:19:59.109Z,81.33
2019-05-15T05:20:59.114Z,81.85
2019-05-15T05:21:59.108Z,82.17
2019-05-15T05:22:59.079Z,82.79
2019-05-15T05:23:59.067Z,82.37
2019-05-15T05:24:59.059Z,81.75
2019-05-15T05:25:59.049Z,81.23
2019-05-15T05:26:59.042Z,81.02
2019-05-15T05:27:59.022Z,81.96
2019-05-15T05:29:01.444Z,81.96
2019-05-15T05:29:58.997Z,82.37
2019-05-15T05:30:59.041Z,81.54
2019-05-15T05:31:58.988Z,81.96
2019-05-15T05:32:58.966Z,81.54
2019-05-15T05:33:58.958Z,82.27
2019-05-15T05:34:59.032Z,82.58
2019-05-15T05:35:58.946Z,83.17
2019-05-15T05:36:59.064Z,82.13
2019-05-15T05:37:58.915Z,82.23
2019-05-15T05:38:58.896Z,82.44
2019-05-15T05:39:58.885Z,81.71
2019-05-15T05:40:58.896Z,82.75
2019-05-15T05:41:58.899Z,83.17
2019-05-15T05:42:59.594Z,82.34
2019-05-15T05:43:58.844Z,82.86
2019-05-15T05:44:58.833Z,81.67
2019-05-15T05:45:58.834Z,82.30
2019-05-15T05:46:58.821Z,81.26
2019-05-15T05:47:58.816Z,81.84
2019-05-15T05:48:58.792Z,80.80
2019-05-15T05:49:58.784Z,81.84
2019-05-15T05:50:58.784Z,81.63
2019-05-15T05:51:58.855Z,80.25
2019-05-15T05:52:58.849Z,81.29
2019-05-15T05:53:59.060Z,80.87
2019-05-15T05:54:58.722Z,80.42
2019-05-15T05:55:58.722Z,80.63
2019-05-15T05:56:58.728Z,80.83
2019-05-15T05:57:58.694Z,80.52
2019-05-15T05:58:58.804Z,80.21
2019-05-15T05:59:58.661Z,79.65
2019-05-15T06:00:58.795Z,79.24
2019-05-15T06:01:59.112Z,78.92
2019-05-15T06:02:59.142Z,78.61
2019-05-15T06:03:58.620Z,78.51
2019-05-15T06:04:58.620Z,79.10
2019-05-15T06:05:59.229Z,78.37
2019-05-15T06:07:07.075Z,78.58
2019-05-15T06:07:59.579Z,77.82
2019-05-15T06:08:58.596Z,77.09
2019-05-15T06:09:58.561Z,77.16
2019-05-15T06:10:58.746Z,76.64
2019-05-15T06:11:58.539Z,75.67
2019-05-15T06:12:58.814Z,75.46
2019-05-15T06:13:58.590Z,75.12
2019-05-15T06:14:58.508Z,74.26
2019-05-15T06:15:59.055Z,73.63
2019-05-15T06:16:58.941Z,73.29
2019-05-15T06:17:58.600Z,73.39
2019-05-15T06:18:58.745Z,72.43
2019-05-15T06:19:58.684Z,72.12
2019-05-15T06:20:58.880Z,70.95
2019-05-15T06:22:01.062Z,71.36
2019-05-15T06:22:58.423Z,71.15
2019-05-15T06:24:04.716Z,70.43
2019-05-15T06:24:59.403Z,70.53
2019-05-15T06:25:59.257Z,70.61
2019-05-15T06:26:58.748Z,70.81
2019-05-15T06:27:58.427Z,70.71
2019-05-15T06:28:58.683Z,69.47
2019-05-15T06:29:58.347Z,69.57
2019-05-15T06:31:00.663Z,69.26
2019-05-15T06:31:58.776Z,68.92
2019-05-15T06:33:08.369Z,68.61
2019-05-15T06:33:59.302Z,68.71
2019-05-15T06:34:58.284Z,68.27
2019-05-15T06:35:59.260Z,68.48
2019-05-15T06:36:58.841Z,67.34
2019-05-15T06:37:59.128Z,67.03
2019-05-15T06:38:59.059Z,66.93
2019-05-15T06:39:58.857Z,67.44
2019-05-15T06:40:58.376Z,66.89
2019-05-15T06:41:58.854Z,67.30
2019-05-15T06:42:59.314Z,66.24
2019-05-15T06:43:58.922Z,65.11
2019-05-15T06:44:58.916Z,64.07
2019-05-15T06:45:58.558Z,64.18
2019-05-15T06:46:58.775Z,64.25
2019-05-15T06:48:01.373Z,64.36
2019-05-15T06:48:58.281Z,64.46
2019-05-15T06:49:58.134Z,64.87
2019-05-15T06:50:58.136Z,63.53
2019-05-15T06:51:58.256Z,63.22
2019-05-15T06:52:58.736Z,63.60
2019-05-15T06:53:58.384Z,62.99
2019-05-15T06:54:59.267Z,63.09
2019-05-15T06:55:58.606Z,61.85
2019-05-15T06:56:58.461Z,61.96
2019-05-15T06:57:58.515Z,61.65
2019-05-15T06:58:58.282Z,61.54
2019-05-15T06:59:58.060Z,61.24
2019-05-15T07:00:59.319Z,61.24
2019-05-15T07:01:59.431Z,62.16
2019-05-15T07:02:58.393Z,61.65
2019-05-15T07:03:59.002Z,61.24
2019-05-15T07:04:58.475Z,61.00
2019-05-15T07:05:59.762Z,59.86
2019-05-15T07:06:58.428Z,60.49
2019-05-15T07:07:58.486Z,60.07
2019-05-15T07:08:58.595Z,60.89
2019-05-15T07:09:58.323Z,61.31
2019-05-15T07:10:58.019Z,60.07
2019-05-15T07:11:59.094Z,60.07
2019-05-15T07:12:58.513Z,59.66
2019-05-15T07:13:58.138Z,59.25
2019-05-15T07:14:58.322Z,59.66
2019-05-15T07:15:58.512Z,59.56
2019-05-15T07:16:59.273Z,58.60
2019-05-15T07:17:58.105Z,59.42
2019-05-15T07:18:58.885Z,59.84
2019-05-15T07:19:59.304Z,59.84
2019-05-15T07:20:58.171Z,58.16
2019-05-15T07:21:58.160Z,57.34
2019-05-15T07:22:58.631Z,56.62
2019-05-15T07:23:58.364Z,57.03
2019-05-15T07:24:58.284Z,56.00
2019-05-15T07:25:58.725Z,55.49
2019-05-15T07:26:59.102Z,56.10
2019-05-15T07:27:58.211Z,56.72
2019-05-15T07:28:59.602Z,56.93
2019-05-15T07:29:58.396Z,57.75
2019-05-15T07:30:58.364Z,57.24
2019-05-15T07:31:58.589Z,57.34
2019-05-15T07:32:58.346Z,57.14
2019-05-15T07:33:59.821Z,56.59
2019-05-15T07:34:57.907Z,57.82
2019-05-15T07:35:59.039Z,57.52
2019-05-15T07:36:59.168Z,56.80
2019-05-15T07:37:58.648Z,56.38
2019-05-15T07:38:58.092Z,55.15
2019-05-15T07:39:59.138Z,55.36
2019-05-15T07:41:03.836Z,55.05
2019-05-15T07:41:58.593Z,55.66
2019-05-15T07:42:58.691Z,55.77
2019-05-15T07:43:58.603Z,55.98
2019-05-15T07:44:58.801Z,55.57
2019-05-15T07:45:59.006Z,55.87
2019-05-15T07:46:58.363Z,54.64
2019-05-15T07:47:58.494Z,52.89
2019-05-15T07:48:58.341Z,53.92
2019-05-15T07:49:59.042Z,54.13
2019-05-15T07:50:59.463Z,55.05
2019-05-15T07:51:59.181Z,54.72
2019-05-15T07:52:59.044Z,55.54
2019-05-15T07:53:58.324Z,54.92
2019-05-15T07:54:58.156Z,54.61
2019-05-15T07:56:01.190Z,54.20
2019-05-15T07:56:58.159Z,52.56
2019-05-15T07:57:59.201Z,51.32
2019-05-15T07:58:58.656Z,51.73
2019-05-15T07:59:58.801Z,52.53
2019-05-15T08:00:58.973Z,52.84
2019-05-15T08:01:58.140Z,51.37
2019-05-15T08:02:58.643Z,50.86
2019-05-15T08:04:14.359Z,51.07
2019-05-15T08:04:58.366Z,50.53
2019-05-15T08:06:02.125Z,50.53
2019-05-15T08:06:59.157Z,51.76
2019-05-15T08:07:58.188Z,50.94
2019-05-15T08:08:59.223Z,50.32
2019-05-15T08:09:59.197Z,49.09
2019-05-15T08:10:57.916Z,49.60
2019-05-15T08:12:00.167Z,49.22
2019-05-15T08:12:58.309Z,49.73
2019-05-15T08:13:58.152Z,49.01
2019-05-15T08:14:58.283Z,49.22
2019-05-15T08:15:57.994Z,48.81
2019-05-15T08:16:59.175Z,49.22
2019-05-15T08:18:05.536Z,48.99
2019-05-15T08:18:58.237Z,48.68
2019-05-15T08:19:58.249Z,48.07
2019-05-15T08:20:58.639Z,49.30
2019-05-15T08:21:58.146Z,49.51
2019-05-15T08:22:58.222Z,48.38
2019-05-15T08:23:59.073Z,49.19
2019-05-15T08:24:59.184Z,48.38
2019-05-15T08:25:57.889Z,48.07
2019-05-15T08:26:58.111Z,48.25
2019-05-15T08:27:58.751Z,48.97
2019-05-15T08:28:57.914Z,47.74
2019-05-15T08:29:58.120Z,47.12
2019-05-15T08:30:58.314Z,48.13
2019-05-15T08:31:59.036Z,47.20
2019-05-15T08:32:58.918Z,48.04
2019-05-15T08:34:12.290Z,49.79
2019-05-15T08:34:58.642Z,49.89
2019-05-15T08:35:58.774Z,49.07
2019-05-15T08:36:59.031Z,49.07
2019-05-15T08:37:58.130Z,48.04
2019-05-15T08:38:59.091Z,48.64
2019-05-15T08:39:59.424Z,47.51
2019-05-15T08:40:59.045Z,48.74
2019-05-15T08:41:58.457Z,47.61
2019-05-15T08:43:01.868Z,48.13
2019-05-15T08:43:58.050Z,48.64
2019-05-15T08:44:58.377Z,47.00
2019-05-15T08:45:58.636Z,47.20
2019-05-15T08:46:58.779Z,46.69
2019-05-15T08:47:58.550Z,47.22
2019-05-15T08:48:58.347Z,47.33
2019-05-15T08:49:57.933Z,47.42
2019-05-15T08:50:57.875Z,47.42
2019-05-15T08:51:58.411Z,47.42
2019-05-15T08:52:57.920Z,47.33
2019-05-15T08:53:58.003Z,47.94
2019-05-15T08:54:59.142Z,48.86
2019-05-15T08:55:58.744Z,46.91
2019-05-15T08:56:59.212Z,46.71
2019-05-15T08:58:07.556Z,46.81
2019-05-15T08:58:58.118Z,46.20
2019-05-15T08:59:58.333Z,46.09
2019-05-15T09:00:58.727Z,47.09
2019-05-15T09:01:58.245Z,46.89
2019-05-15T09:02:58.219Z,47.41
2019-05-15T09:03:58.202Z,47.71
2019-05-15T09:04:58.025Z,47.92
2019-05-15T09:05:58.795Z,48.84
2019-05-15T09:07:01.056Z,48.61
2019-05-15T09:07:58.053Z,48.51
2019-05-15T09:08:58.502Z,48.21
2019-05-15T09:09:58.070Z,48.00
2019-05-15T09:10:58.712Z,48.10
2019-05-15T09:11:58.483Z,47.38
2019-05-15T09:12:58.648Z,47.05
2019-05-15T09:13:59.327Z,46.13
2019-05-15T09:14:58.186Z,46.54
2019-05-15T09:15:58.866Z,46.54
2019-05-15T09:16:58.254Z,46.95
2019-05-15T09:18:11.045Z,47.36
2019-05-15T09:18:59.169Z,46.64
2019-05-15T09:19:58.746Z,46.31
2019-05-15T09:20:59.097Z,47.24
2019-05-15T09:21:58.501Z,46.83
2019-05-15T09:22:58.283Z,46.11
2019-05-15T09:23:58.981Z,46.11
2019-05-15T09:24:58.823Z,46.21
2019-05-15T09:25:57.872Z,46.31
2019-05-15T09:26:59.229Z,46.52
2019-05-15T09:27:57.969Z,46.21
2019-05-15T09:28:58.488Z,45.50
2019-05-15T09:29:59.021Z,44.45
2019-05-15T09:30:58.851Z,46.19
2019-05-15T09:31:58.678Z,45.57
2019-05-15T09:32:58.727Z,45.98
2019-05-15T09:33:58.556Z,45.47
2019-05-15T09:34:59.010Z,44.86
2019-05-15T09:35:58.335Z,44.96
2019-05-15T09:36:59.762Z,45.68
2019-05-15T09:37:58.342Z,44.98
2019-05-15T09:38:58.518Z,44.98
2019-05-15T09:39:58.391Z,45.17
2019-05-15T09:40:58.500Z,44.96
2019-05-15T09:41:57.931Z,44.96
2019-05-15T09:42:57.813Z,44.53
2019-05-15T09:43:57.900Z,43.71
2019-05-15T09:44:58.190Z,44.23
2019-05-15T09:45:58.275Z,43.20
2019-05-15T09:46:58.479Z,43.91
2019-05-15T09:47:58.658Z,44.32
2019-05-15T09:48:59.063Z,45.35
2019-05-15T09:49:56.342Z,45.43
2019-05-15T09:50:58.535Z,45.64
2019-05-15T09:51:58.503Z,44.00
2019-05-15T09:52:58.633Z,44.51
2019-05-15T09:53:59.413Z,44.71
2019-05-15T09:54:59.111Z,46.23
2019-05-15T09:55:56.263Z,45.20
2019-05-15T09:56:58.376Z,45.80
2019-05-15T09:57:58.875Z,45.70
2019-05-15T09:58:58.168Z,43.96
2019-05-15T09:59:58.665Z,44.08
2019-05-15T10:00:56.223Z,45.00
2019-05-15T10:01:58.693Z,45.82
2019-05-15T10:02:56.193Z,45.51
2019-05-15T10:03:56.182Z,44.38
2019-05-15T10:05:06.154Z,45.41
2019-05-15T10:05:57.170Z,46.12
2019-05-15T10:06:56.142Z,46.53
2019-05-15T10:07:56.134Z,44.70
2019-05-15T10:08:56.130Z,44.38
2019-05-15T10:09:56.131Z,44.71
2019-05-15T10:10:56.100Z,44.51
2019-05-15T10:11:56.103Z,43.82
2019-05-15T10:12:59.357Z,44.23
2019-05-15T10:13:58.369Z,43.61
2019-05-15T10:14:59.037Z,44.73
2019-05-15T10:15:58.429Z,45.35
2019-05-15T10:16:58.224Z,44.53
2019-05-15T10:17:59.480Z,45.56
2019-05-15T10:18:58.180Z,46.17
2019-05-15T10:19:58.207Z,45.65
2019-05-15T10:20:58.139Z,45.25
2019-05-15T10:21:55.980Z,44.84
2019-05-15T10:22:55.974Z,45.56
2019-05-15T10:23:58.783Z,45.56
2019-05-15T10:24:58.579Z,45.15
2019-05-15T10:25:55.939Z,45.45
2019-05-15T10:26:58.007Z,45.86
2019-05-15T10:27:57.940Z,45.04
2019-05-15T10:28:58.277Z,45.15
2019-05-15T10:29:55.909Z,45.45
2019-05-15T10:30:55.897Z,46.97
2019-05-15T10:31:55.877Z,46.25
2019-05-15T10:32:55.859Z,45.20
2019-05-15T10:33:58.121Z,45.20
2019-05-15T10:34:55.849Z,45.00
2019-05-15T10:35:55.838Z,43.98
2019-05-15T10:36:55.827Z,45.20
2019-05-15T10:37:55.816Z,44.59
2019-05-15T10:38:55.815Z,44.08
2019-05-15T10:39:58.269Z,43.90
2019-05-15T10:41:08.487Z,45.00
2019-05-15T10:41:56.768Z,45.72
2019-05-15T10:42:55.758Z,45.31
2019-05-15T10:43:56.861Z,45.49
2019-05-15T10:44:55.746Z,45.37
2019-05-15T10:45:55.716Z,44.04
2019-05-15T10:46:58.354Z,43.63
2019-05-15T10:47:58.407Z,43.12
2019-05-15T10:48:58.414Z,43.43
2019-05-15T10:49:55.697Z,42.18
2019-05-15T10:51:01.369Z,41.97
2019-05-15T10:51:56.655Z,41.36
2019-05-15T10:52:55.639Z,43.30
2019-05-15T10:53:55.625Z,43.20
2019-05-15T10:54:58.153Z,43.73
2019-05-15T10:55:59.491Z,44.45
2019-05-15T10:56:55.596Z,42.91
2019-05-15T10:57:55.597Z,45.29
2019-05-15T10:58:55.566Z,45.49
2019-05-15T10:59:55.564Z,44.17
2019-05-15T11:00:55.560Z,45.08
2019-05-15T11:01:55.543Z,44.26
2019-05-15T11:02:57.846Z,43.55
2019-05-15T11:03:55.514Z,43.96
2019-05-15T11:04:57.741Z,43.02
2019-05-15T11:05:57.876Z,41.38
2019-05-15T11:06:55.475Z,41.18
2019-05-15T11:07:55.463Z,42.20
2019-05-15T11:08:58.205Z,43.32
2019-05-15T11:09:58.059Z,45.45
2019-05-15T11:10:58.371Z,43.82
2019-05-15T11:11:58.173Z,42.38
2019-05-15T11:12:55.414Z,43.61
2019-05-15T11:14:00.315Z,43.91
2019-05-15T11:14:56.420Z,42.29
2019-05-15T11:15:55.386Z,41.69
2019-05-15T11:16:55.363Z,42.61
2019-05-15T11:17:55.353Z,41.89
2019-05-15T11:18:55.345Z,43.10
2019-05-15T11:19:55.333Z,43.30
2019-05-15T11:20:55.334Z,44.73
2019-05-15T11:21:55.311Z,45.63
2019-05-15T11:22:55.312Z,44.28
2019-05-15T11:23:55.292Z,42.76
2019-05-15T11:24:55.272Z,43.67
2019-05-15T11:25:55.270Z,43.57
2019-05-15T11:26:56.206Z,44.16
2019-05-15T11:27:55.233Z,44.67
2019-05-15T11:28:55.232Z,43.63
2019-05-15T11:29:55.210Z,43.84
2019-05-15T11:30:55.211Z,41.51
2019-05-15T11:31:55.189Z,40.71
2019-05-15T11:32:55.209Z,40.81
2019-05-15T11:33:55.164Z,41.04
2019-05-15T11:34:55.171Z,40.85
2019-05-15T11:36:04.204Z,40.87
2019-05-15T11:36:59.098Z,42.91
2019-05-15T11:37:56.873Z,42.79
2019-05-15T11:38:55.109Z,42.69
2019-05-15T11:39:55.108Z,40.97
2019-05-15T11:40:55.090Z,41.59
2019-05-15T11:41:55.070Z,41.59
2019-05-15T11:42:55.069Z,42.10
2019-05-15T11:43:55.060Z,41.97
2019-05-15T11:44:55.040Z,43.00
2019-05-15T11:45:55.029Z,44.61
2019-05-15T11:46:55.009Z,41.63
2019-05-15T11:47:55.007Z,40.92
2019-05-15T11:48:54.997Z,40.30
2019-05-15T11:49:54.979Z,41.53
2019-05-15T11:50:54.981Z,41.12
2019-05-15T11:51:54.949Z,41.33
2019-05-15T11:52:54.941Z,41.02
2019-05-15T11:53:54.930Z,43.06
2019-05-15T11:54:55.262Z,41.94
2019-05-15T11:55:54.918Z,41.22
2019-05-15T11:56:54.903Z,40.42
2019-05-15T11:57:55.745Z,40.03
2019-05-15T11:58:54.877Z,39.73
2019-05-15T11:59:55.722Z,40.85
2019-05-15T12:00:54.865Z,41.44
2019-05-15T12:01:54.837Z,40.73
2019-05-15T12:02:54.827Z,39.18
2019-05-15T12:03:54.807Z,40.61
2019-05-15T12:04:54.808Z,39.37
2019-05-15T12:05:54.817Z,39.37
2019-05-15T12:06:59.721Z,38.96
2019-05-15T12:07:57.788Z,40.80
2019-05-15T12:08:54.758Z,40.08
2019-05-15T12:09:54.748Z,39.98
2019-05-15T12:10:54.765Z,40.80
2019-05-15T12:11:54.731Z,40.19
2019-05-15T12:12:54.706Z,39.87
2019-05-15T12:13:54.697Z,41.30
2019-05-15T12:14:54.687Z,40.69
2019-05-15T12:15:54.677Z,42.12
2019-05-15T12:17:06.860Z,41.71
2019-05-15T12:17:55.655Z,38.96
2019-05-15T12:18:54.638Z,38.45
2019-05-15T12:19:56.759Z,38.65
2019-05-15T12:20:55.615Z,38.78
2019-05-15T12:21:54.616Z,39.78
2019-05-15T12:22:54.598Z,38.85
2019-05-15T12:23:54.585Z,38.24
2019-05-15T12:24:54.569Z,38.14
2019-05-15T12:25:54.669Z,39.08
2019-05-15T12:26:54.555Z,40.00
2019-05-15T12:27:54.547Z,40.30
2019-05-15T12:28:54.526Z,40.51
2019-05-15T12:29:54.505Z,41.20
2019-05-15T12:30:54.495Z,39.98
2019-05-15T12:31:54.494Z,39.18
2019-05-15T12:32:54.484Z,39.79
2019-05-15T12:33:54.457Z,38.67
2019-05-15T12:34:54.449Z,38.89
2019-05-15T12:35:54.445Z,39.61
2019-05-15T12:37:55.437Z,40.41
2019-05-15T12:38:54.433Z,40.92
2019-05-15T12:59:55.142Z,38.55
2019-05-15T13:00:54.140Z,39.06
2019-05-15T13:01:54.134Z,39.87
2019-05-15T13:02:54.125Z,39.65
2019-05-15T13:03:54.101Z,38.84
2019-05-15T13:04:54.086Z,40.26
2019-05-15T13:05:54.072Z,40.98
2019-05-15T13:07:11.828Z,40.76
2019-05-15T13:07:55.050Z,38.31
2019-05-15T13:08:54.039Z,39.23
2019-05-15T13:09:54.021Z,40.33
2019-05-15T13:10:54.011Z,41.66
2019-05-15T13:11:54.012Z,38.78
2019-05-15T13:13:00.873Z,38.58